Time;durP1;ratioP1;P1;durP2;ratioP2;P2;SDS_P1;SDS_P2;PMS_P1;PMS_P2;Temp;Humidity;BMP_temperature;BMP_pressure;BME280_temperature;BME280_humidity;BME280_pressure;Samples;Min_cycle;Max_cycle;Signal;HPM_P1;HPM_P2
2023/07/19 00:00:59;;;;;;;4.55;3.28;;;;;;;27.21;nan;62616.53;5071643;28;20182;-69
2023/07/19 00:03:25;;;;;;;5.30;3.28;;;;;;;27.13;nan;62620.50;5072449;28;20176;-69
2023/07/19 00:05:50;;;;;;;5.25;3.30;;;;;;;26.89;nan;62577.28;5071964;28;20733;-68
2023/07/19 00:08:16;;;;;;;5.03;3.55;;;;;;;26.80;nan;62719.66;5071973;28;20252;-67
2023/07/19 00:10:41;;;;;;;5.70;3.38;;;;;;;26.89;nan;62555.72;5072045;28;20633;-68
2023/07/19 00:13:07;;;;;;;4.45;3.30;;;;;;;27.02;nan;62575.84;5071836;28;20166;-67
2023/07/19 00:15:33;;;;;;;5.90;3.60;;;;;;;27.08;nan;62585.91;5072079;28;20206;-70
2023/07/19 00:17:58;;;;;;;6.70;3.10;;;;;;;26.78;nan;62525.31;5071916;28;20216;-68
2023/07/19 00:20:24;;;;;;;4.80;3.20;;;;;;;26.98;nan;62594.88;5071966;28;20170;-68
2023/07/19 00:22:49;;;;;;;4.78;3.33;;;;;;;26.94;nan;62524.72;5071854;28;20652;-68
2023/07/19 00:25:15;;;;;;;4.50;3.22;;;;;;;26.95;nan;62613.00;5071621;28;20229;-68
2023/07/19 00:27:40;;;;;;;7.28;3.45;;;;;;;26.79;nan;62783.50;5071598;28;20208;-68
2023/07/19 00:30:06;;;;;;;5.85;3.30;;;;;;;26.63;nan;62568.50;5071298;28;20181;-68
2023/07/19 00:32:32;;;;;;;6.15;3.10;;;;;;;26.89;nan;62511.69;5060874;28;20174;-67
2023/07/19 00:34:57;;;;;;;5.63;3.13;;;;;;;26.68;nan;62487.69;5071924;28;20197;-67
2023/07/19 00:37:23;;;;;;;6.20;3.33;;;;;;;26.64;nan;62475.22;5071517;28;20166;-69
2023/07/19 00:39:49;;;;;;;4.15;3.13;;;;;;;26.64;nan;62603.69;5071516;28;20660;-66
2023/07/19 00:42:14;;;;;;;6.05;3.42;;;;;;;26.68;nan;62553.78;5071599;28;20712;-66
2023/07/19 00:44:39;;;;;;;4.85;3.33;;;;;;;26.27;nan;62483.88;5071771;28;20629;-67
2023/07/19 00:47:05;;;;;;;4.13;3.20;;;;;;;26.38;nan;62512.19;5072349;28;20710;-69
2023/07/19 00:49:31;;;;;;;5.32;3.50;;;;;;;26.25;nan;62497.31;5072000;28;20170;-68
2023/07/19 00:52:01;;;;;;;4.97;3.17;;;;;;;26.36;nan;62483.69;5071780;28;20593;-66
2023/07/19 00:54:27;;;;;;;4.80;3.17;;;;;;;26.42;nan;62489.41;5071784;28;20217;-69
2023/07/19 00:56:52;;;;;;;4.05;3.10;;;;;;;26.29;nan;62506.56;5071583;28;20194;-65
2023/07/19 00:59:19;;;;;;;5.65;3.53;;;;;;;26.55;nan;62540.97;5071338;28;20258;-68
2023/07/19 01:01:45;;;;;;;4.43;3.10;;;;;;;26.52;nan;62521.81;5071439;28;20186;-67
2023/07/19 01:04:11;;;;;;;4.97;3.30;;;;;;;26.33;nan;62469.78;5071238;28;20166;-65
2023/07/19 01:06:36;;;;;;;4.13;3.08;;;;;;;26.44;nan;62473.91;5071451;28;20194;-67
2023/07/19 01:09:03;;;;;;;5.53;3.42;;;;;;;26.08;nan;62451.09;5071247;28;20178;-67
2023/07/19 01:11:28;;;;;;;4.95;3.38;;;;;;;26.01;nan;62469.84;5071544;28;20220;-67
2023/07/19 01:13:54;;;;;;;5.68;3.75;;;;;;;25.99;nan;62432.94;5074909;28;20174;-68
2023/07/19 01:16:20;;;;;;;5.20;3.55;;;;;;;25.96;nan;62422.22;5074800;28;20223;-69
2023/07/19 01:18:49;;;;;;;5.97;3.47;;;;;;;25.75;nan;62403.47;5080132;28;20284;-69
2023/07/19 01:21:15;;;;;;;5.18;3.10;;;;;;;25.71;nan;62352.34;5089703;28;20664;-68
2023/07/19 01:23:41;;;;;;;5.13;3.30;;;;;;;26.24;nan;62469.97;5076473;28;20166;-69
2023/07/19 01:26:06;;;;;;;5.20;3.45;;;;;;;25.87;nan;62394.19;4656323;28;21452;-66
2023/07/19 01:28:32;;;;;;;7.20;3.88;;;;;;;25.85;nan;62713.41;4632240;28;20897;-67
2023/07/19 01:31:01;;;;;;;4.88;3.22;;;;;;;25.78;nan;62370.25;5072510;28;20264;-68
2023/07/19 01:33:26;;;;;;;5.47;3.50;;;;;;;25.67;nan;62407.41;5074501;28;20249;-67
2023/07/19 01:35:52;;;;;;;4.90;3.30;;;;;;;25.65;nan;62407.75;5074332;28;20265;-67
2023/07/19 01:38:17;;;;;;;4.43;3.17;;;;;;;25.42;nan;62361.66;4552463;28;21618;-66
2023/07/19 01:40:43;;;;;;;5.63;3.92;;;;;;;25.59;nan;62340.69;4477413;28;20963;-68
2023/07/19 01:43:08;;;;;;;4.50;3.53;;;;;;;25.14;nan;62470.38;4450515;28;20829;-67
2023/07/19 01:45:34;;;;;;;5.93;3.90;;;;;;;25.53;nan;62384.69;4605504;28;21051;-68
2023/07/19 01:47:59;;;;;;;5.10;3.90;;;;;;;25.58;nan;62389.84;4377851;28;20970;-67
2023/07/19 01:50:24;;;;;;;5.18;3.38;;;;;;;25.35;nan;62348.44;4388367;28;20942;-68
2023/07/19 01:52:50;;;;;;;5.47;3.33;;;;;;;25.26;nan;62348.63;5005259;28;20181;-68
2023/07/19 01:55:15;;;;;;;6.20;3.42;;;;;;;25.14;nan;62321.84;5074594;28;20181;-68
2023/07/19 01:57:41;;;;;;;5.55;3.25;;;;;;;25.43;nan;62336.06;5074375;28;20174;-67
2023/07/19 02:00:07;;;;;;;5.80;3.50;;;;;;;25.41;nan;62336.97;5074593;28;20162;-67
2023/07/19 02:02:32;;;;;;;7.70;3.70;;;;;;;25.38;nan;62385.31;5074016;28;20189;-67
2023/07/19 02:04:58;;;;;;;6.68;3.53;;;;;;;25.10;nan;62346.06;5074338;28;20222;-67
2023/07/19 02:07:23;;;;;;;6.50;3.50;;;;;;;25.60;nan;62378.47;5074102;28;20170;-69
2023/07/19 02:09:49;;;;;;;6.55;3.55;;;;;;;25.54;nan;62660.13;5074109;28;20198;-67
2023/07/19 02:12:14;;;;;;;6.70;4.05;;;;;;;25.60;nan;62394.75;5073651;28;20170;-67
2023/07/19 02:14:39;;;;;;;6.55;3.72;;;;;;;25.90;nan;62462.50;5074258;28;20226;-66
2023/07/19 02:17:05;;;;;;;6.05;3.65;;;;;;;25.82;nan;62412.03;5074013;28;20169;-67
2023/07/19 02:19:30;;;;;;;4.10;3.17;;;;;;;25.66;nan;62467.06;5073957;28;20189;-67
2023/07/19 02:21:56;;;;;;;4.53;3.13;;;;;;;25.47;nan;62409.25;5073464;28;20210;-67
2023/07/19 02:24:21;;;;;;;5.75;3.72;;;;;;;25.53;nan;62399.81;5073634;28;20167;-67
2023/07/19 02:26:46;;;;;;;6.15;3.58;;;;;;;25.76;nan;62402.56;5073377;28;20208;-67
2023/07/19 02:29:12;;;;;;;5.93;3.72;;;;;;;25.64;nan;62380.44;5074019;28;20652;-67
2023/07/19 02:31:37;;;;;;;6.78;3.60;;;;;;;25.91;nan;62401.38;5073673;28;20184;-67
2023/07/19 02:34:07;;;;;;;5.90;4.00;;;;;;;25.88;nan;62408.44;4877287;28;21020;-65
2023/07/19 02:36:36;;;;;;;6.00;3.97;;;;;;;25.86;nan;62408.19;4390841;28;20955;-67
2023/07/19 02:39:03;;;;;;;5.78;3.75;;;;;;;25.95;nan;62387.59;4394178;28;21266;-67
2023/07/19 02:41:29;;;;;;;5.05;3.40;;;;;;;26.33;nan;62505.88;5058373;28;20282;-69
2023/07/19 02:43:55;;;;;;;7.00;3.90;;;;;;;26.03;nan;62720.44;5073725;28;20610;-67
2023/07/19 02:46:20;;;;;;;5.22;3.70;;;;;;;25.95;nan;62442.59;5072458;28;20209;-67
2023/07/19 02:48:45;;;;;;;10.90;3.75;;;;;;;26.11;nan;62465.56;5083929;28;20264;-68
2023/07/19 02:51:11;;;;;;;5.65;3.75;;;;;;;26.16;nan;62324.56;5080103;28;20592;-67
2023/07/19 02:53:37;;;;;;;6.03;3.75;;;;;;;26.15;nan;62493.72;5072757;28;20170;-69
2023/07/19 02:56:03;;;;;;;4.60;3.63;;;;;;;26.25;nan;62483.66;5090879;28;20637;-66
2023/07/19 02:58:28;;;;;;;6.20;4.10;;;;;;;25.81;nan;62415.56;5093265;28;20180;-68
2023/07/19 03:00:54;;;;;;;6.03;3.85;;;;;;;25.70;nan;62418.72;5092875;28;20180;-67
2023/07/19 03:03:20;;;;;;;5.90;3.78;;;;;;;25.85;nan;62446.31;5093225;28;20176;-68
2023/07/19 03:05:45;;;;;;;5.43;3.63;;;;;;;25.62;nan;62506.97;5074562;28;20233;-66
2023/07/19 03:08:11;;;;;;;7.95;3.97;;;;;;;25.81;nan;62437.06;5090708;28;20181;-66
2023/07/19 03:10:38;;;;;;;8.23;4.00;;;;;;;25.76;nan;62422.94;5072729;28;20174;-68
2023/07/19 03:13:04;;;;;;;5.95;3.70;;;;;;;25.97;nan;62698.41;5080008;28;20196;-67
2023/07/19 03:15:33;;;;;;;6.70;4.25;;;;;;;26.24;nan;62459.47;5093098;28;20213;-67
2023/07/19 03:18:05;;;;;;;5.63;3.78;;;;;;;26.56;nan;62595.13;5092939;28;20230;-67
2023/07/19 03:20:31;;;;;;;7.13;4.35;;;;;;;26.93;nan;62615.97;5093235;28;20177;-66
2023/07/19 03:22:57;;;;;;;6.95;3.92;;;;;;;27.35;nan;62683.91;5093293;28;20174;-68
2023/07/19 03:25:23;;;;;;;5.63;3.88;;;;;;;27.77;nan;62579.72;5093090;28;20211;-67
2023/07/19 03:27:49;;;;;;;5.35;3.80;;;;;;;28.33;nan;62758.38;5093281;28;20173;-68
2023/07/19 03:30:15;;;;;;;5.85;3.92;;;;;;;28.89;nan;62885.22;5092871;28;20611;-67
2023/07/19 03:32:40;;;;;;;6.20;3.50;;;;;;;29.30;nan;62950.19;5092808;28;20226;-66
2023/07/19 03:35:06;;;;;;;5.75;4.13;;;;;;;29.95;nan;63015.84;4939162;28;20242;-65
2023/07/19 03:37:34;;;;;;;5.82;3.50;;;;;;;30.33;nan;63080.66;5092948;28;20628;-68
2023/07/19 03:40:00;;;;;;;5.65;3.53;;;;;;;30.86;nan;63119.38;5093389;28;20181;-66
2023/07/19 03:42:26;;;;;;;4.88;3.47;;;;;;;31.54;nan;63258.47;5093435;28;20574;-67
2023/07/19 03:44:51;;;;;;;6.22;4.03;;;;;;;32.11;nan;63278.09;4812253;28;20268;-67
2023/07/19 03:47:16;;;;;;;5.75;3.65;;;;;;;32.59;nan;63430.84;4446163;28;20621;-67
2023/07/19 03:49:43;;;;;;;5.68;3.90;;;;;;;33.22;nan;63701.25;4619766;28;20238;-67
2023/07/19 03:52:08;;;;;;;6.90;4.30;;;;;;;34.03;nan;63712.31;4709360;28;21383;-67
2023/07/19 03:54:34;;;;;;;5.65;4.00;;;;;;;34.71;nan;63842.53;4388796;28;21078;-66
2023/07/19 03:56:59;;;;;;;4.68;3.38;;;;;;;35.27;nan;63883.00;4407902;28;20630;-67
2023/07/19 03:59:24;;;;;;;5.32;3.70;;;;;;;35.45;nan;63943.78;4387079;28;20217;-66
2023/07/19 04:01:50;;;;;;;4.78;3.30;;;;;;;35.28;nan;63937.94;4405792;28;20959;-68
2023/07/19 04:04:15;;;;;;;5.78;3.40;;;;;;;36.11;nan;64051.84;4396841;28;20838;-65
2023/07/19 04:06:40;;;;;;;6.75;3.67;;;;;;;36.69;nan;64230.06;4725131;28;20682;-68
2023/07/19 04:09:06;;;;;;;6.70;3.53;;;;;;;36.87;nan;64419.03;5074957;28;20176;-66
2023/07/19 04:11:33;;;;;;;4.97;3.35;;;;;;;36.92;nan;64256.28;5086767;28;20180;-67
2023/07/19 04:13:58;;;;;;;6.22;3.60;;;;;;;37.20;nan;64275.00;5073691;28;20339;-68
2023/07/19 04:16:24;;;;;;;5.50;3.22;;;;;;;36.96;nan;64208.19;5087616;28;20608;-71
2023/07/19 04:18:49;;;;;;;5.00;3.17;;;;;;;36.88;nan;64259.63;5071784;28;20181;-70
2023/07/19 04:21:15;;;;;;;5.35;3.47;;;;;;;36.77;nan;64214.81;5070661;28;20656;-71
2023/07/19 04:23:40;;;;;;;4.63;3.17;;;;;;;35.78;nan;64016.16;5070765;28;20181;-69
2023/07/19 04:26:05;;;;;;;4.40;3.03;;;;;;;35.83;nan;63928.78;5089677;28;20192;-66
2023/07/19 04:28:31;;;;;;;5.22;3.42;;;;;;;36.53;nan;64142.16;5059861;28;20636;-68
2023/07/19 04:30:56;;;;;;;4.57;3.17;;;;;;;36.84;nan;64217.63;5089644;28;20181;-68
2023/07/19 04:33:22;;;;;;;4.45;3.25;;;;;;;36.59;nan;64152.34;5071644;28;20574;-68
2023/07/19 04:35:47;;;;;;;5.05;3.30;;;;;;;36.95;nan;64257.69;5077106;28;20234;-67
2023/07/19 04:38:13;;;;;;;4.80;3.42;;;;;;;36.87;nan;64229.13;5091902;28;20176;-64
2023/07/19 04:40:38;;;;;;;5.25;3.47;;;;;;;36.93;nan;64258.03;5091540;28;20245;-67
2023/07/19 04:43:04;;;;;;;9.00;3.60;;;;;;;37.21;nan;64305.50;5084017;28;20177;-69
2023/07/19 04:45:30;;;;;;;5.60;3.08;;;;;;;37.45;nan;64352.16;5070911;28;20209;-67
2023/07/19 04:47:55;;;;;;;4.95;3.50;;;;;;;37.01;nan;64272.09;5072459;28;20177;-69
2023/07/19 04:50:23;;;;;;;5.38;3.58;;;;;;;36.70;nan;64231.81;5075056;28;20166;-62
2023/07/19 04:52:49;;;;;;;4.60;3.15;;;;;;;36.67;nan;64209.66;5074611;28;20181;-68
2023/07/19 04:55:15;;;;;;;5.95;3.53;;;;;;;36.89;nan;64234.72;5074577;28;20265;-65
2023/07/19 04:57:41;;;;;;;5.38;3.67;;;;;;;36.70;nan;64161.94;5073198;28;20730;-68
2023/07/19 05:00:11;;;;;;;5.15;3.40;;;;;;;36.57;nan;64211.34;5074807;28;20302;-67
2023/07/19 05:02:40;;;;;;;4.90;3.35;;;;;;;36.15;nan;64123.09;5075037;28;20247;-68
2023/07/19 05:05:06;;;;;;;4.70;3.25;;;;;;;36.24;nan;64154.84;5074834;28;20225;-67
2023/07/19 05:07:34;;;;;;;4.07;3.45;;;;;;;36.46;nan;64185.19;5075045;28;20175;-67
2023/07/19 05:10:00;;;;;;;6.10;3.50;;;;;;;36.10;nan;64117.25;5075273;28;20170;-65
2023/07/19 05:12:25;;;;;;;5.38;3.50;;;;;;;36.11;nan;64067.81;5074388;28;20235;-70
2023/07/19 05:14:51;;;;;;;5.20;3.58;;;;;;;35.46;nan;63974.22;5074885;28;20250;-69
2023/07/19 05:17:16;;;;;;;7.00;3.30;;;;;;;35.45;nan;63963.00;5074812;28;20191;-69
2023/07/19 05:19:42;;;;;;;6.10;3.42;;;;;;;35.26;nan;63938.28;5074746;28;20222;-70
2023/07/19 05:22:07;;;;;;;6.22;3.75;;;;;;;35.23;nan;63958.16;5074469;28;20250;-68
2023/07/19 05:24:33;;;;;;;6.72;3.20;;;;;;;35.82;nan;64020.78;5075174;28;20176;-67
2023/07/19 05:27:00;;;;;;;5.10;3.50;;;;;;;35.81;nan;63980.28;5073232;28;20212;-69
2023/07/19 05:29:25;;;;;;;5.90;3.25;;;;;;;35.94;nan;64061.34;5074708;28;20200;-71
2023/07/19 05:31:50;;;;;;;5.78;3.70;;;;;;;35.93;nan;64049.56;5074645;28;20320;-69
2023/07/19 05:34:16;;;;;;;5.35;3.40;;;;;;;36.17;nan;64084.88;5074055;28;20561;-68
2023/07/19 05:36:41;;;;;;;6.43;3.63;;;;;;;35.56;nan;63980.50;5072348;28;20178;-70
2023/07/19 05:39:08;;;;;;;5.65;3.22;;;;;;;34.82;nan;63821.31;5092485;28;20169;-68
2023/07/19 05:41:33;;;;;;;5.80;3.50;;;;;;;34.23;nan;63734.91;5074258;28;20165;-68
2023/07/19 05:43:58;;;;;;;4.93;3.50;;;;;;;33.64;nan;63609.38;5080042;28;20250;-68
2023/07/19 05:46:24;;;;;;;6.68;3.60;;;;;;;33.16;nan;63753.19;5094410;28;20564;-70
2023/07/19 05:48:49;;;;;;;6.78;3.72;;;;;;;33.02;nan;63540.31;5094393;28;20200;-69
2023/07/19 05:51:15;;;;;;;5.22;3.30;;;;;;;32.56;nan;63392.94;5076286;28;20598;-68
2023/07/19 05:53:40;;;;;;;5.18;3.20;;;;;;;32.48;nan;63412.84;5094472;28;20259;-73
2023/07/19 05:56:05;;;;;;;5.38;3.42;;;;;;;32.55;nan;63442.09;5094801;28;20200;-69
2023/07/19 05:58:31;;;;;;;7.22;4.53;;;;;;;32.50;nan;63414.56;5093838;28;20689;-69
2023/07/19 06:00:57;;;;;;;6.38;3.58;;;;;;;32.32;nan;63418.75;5094391;28;20173;-70
2023/07/19 06:03:22;;;;;;;4.88;3.25;;;;;;;32.46;nan;63386.72;5094284;28;20270;-67
2023/07/19 06:05:48;;;;;;;3.60;2.65;;;;;;;32.24;nan;63398.94;5093865;28;20232;-72
2023/07/19 06:08:14;;;;;;;5.57;3.45;;;;;;;32.36;nan;63391.63;5094169;28;20168;-69
2023/07/19 06:10:39;;;;;;;4.32;3.22;;;;;;;32.32;nan;63391.72;5094024;28;20187;-71
2023/07/19 06:13:05;;;;;;;6.20;3.90;;;;;;;32.34;nan;63425.78;5093788;28;20177;-69
2023/07/19 06:15:32;;;;;;;5.20;3.33;;;;;;;32.21;nan;63379.59;5093756;28;20179;-68
2023/07/19 06:17:57;;;;;;;6.35;3.35;;;;;;;32.22;nan;63366.94;5075702;28;20525;-71
2023/07/19 06:20:23;;;;;;;4.75;3.13;;;;;;;32.52;nan;63443.34;5093456;28;20243;-70
2023/07/19 06:22:48;;;;;;;5.20;3.50;;;;;;;32.52;nan;63430.09;5093593;28;20177;-69
2023/07/19 06:25:15;;;;;;;5.10;3.45;;;;;;;32.51;nan;63630.72;5093708;28;20192;-67
2023/07/19 06:27:41;;;;;;;7.80;3.80;;;;;;;32.57;nan;63375.56;5094045;28;20593;-69
2023/07/19 06:30:07;;;;;;;5.00;3.38;;;;;;;32.73;nan;63462.34;5093543;28;20651;-68
2023/07/19 06:32:32;;;;;;;4.88;3.40;;;;;;;32.65;nan;63477.50;5093711;28;20173;-69
2023/07/19 06:34:58;;;;;;;6.50;3.63;;;;;;;32.42;nan;63461.50;5093395;28;20177;-69
2023/07/19 06:37:23;;;;;;;5.85;3.65;;;;;;;32.36;nan;63391.63;5093622;28;20615;-69
2023/07/19 06:39:49;;;;;;;6.28;3.40;;;;;;;32.65;nan;63474.84;5093583;28;20165;-70
2023/07/19 06:42:14;;;;;;;4.65;3.13;;;;;;;32.80;nan;63473.06;5093056;28;20172;-68
2023/07/19 06:44:39;;;;;;;6.50;3.47;;;;;;;32.57;nan;63684.75;5093664;28;20168;-70
2023/07/19 06:47:05;;;;;;;6.07;3.72;;;;;;;32.64;nan;63436.06;5093029;28;20293;-67
2023/07/19 06:49:30;;;;;;;6.43;3.63;;;;;;;32.74;nan;63456.09;5093213;28;20165;-68
2023/07/19 06:51:55;;;;;;;4.72;3.35;;;;;;;33.02;nan;63545.59;5093656;28;20263;-68
2023/07/19 06:54:21;;;;;;;6.22;3.58;;;;;;;32.89;nan;63509.94;5093161;28;20695;-66
2023/07/19 06:56:46;;;;;;;5.72;3.75;;;;;;;32.95;nan;63704.41;5093397;28;20275;-68
2023/07/19 06:59:13;;;;;;;7.07;4.28;;;;;;;32.86;nan;63512.34;5092873;28;20701;-66
2023/07/19 07:01:38;;;;;;;7.38;3.60;;;;;;;33.34;nan;63590.59;5092779;28;20247;-68
2023/07/19 07:04:07;;;;;;;5.75;3.50;;;;;;;33.11;nan;63529.50;5092523;28;20168;-72
2023/07/19 07:06:32;;;;;;;7.00;3.75;;;;;;;33.70;nan;63565.34;5093129;28;20225;-67
2023/07/19 07:08:58;;;;;;;5.57;3.63;;;;;;;33.26;nan;63541.56;5092955;28;20173;-68
2023/07/19 07:11:23;;;;;;;5.65;3.92;;;;;;;33.43;nan;63683.19;5092110;28;20651;-66
2023/07/19 07:13:49;;;;;;;4.63;3.45;;;;;;;33.11;nan;63529.50;5092559;28;20608;-69
2023/07/19 07:16:14;;;;;;;6.65;3.92;;;;;;;32.98;nan;63512.41;5092566;28;20172;-69
2023/07/19 07:18:40;;;;;;;5.88;3.88;;;;;;;33.21;nan;63556.97;5074748;28;20664;-69
2023/07/19 07:21:05;;;;;;;7.03;4.32;;;;;;;33.52;nan;63605.50;5070723;28;20193;-63
2023/07/19 07:23:31;;;;;;;6.03;3.95;;;;;;;33.73;nan;63582.06;5071594;28;20256;-68
2023/07/19 07:25:56;;;;;;;7.25;4.18;;;;;;;33.49;nan;63597.31;5071919;28;20208;-69
2023/07/19 07:28:23;;;;;;;9.35;4.00;;;;;;;33.38;nan;63591.97;5072058;28;20256;-64
2023/07/19 07:30:48;;;;;;;5.53;3.83;;;;;;;33.19;nan;63565.84;5071893;28;20616;-71
2023/07/19 07:33:13;;;;;;;4.72;3.45;;;;;;;33.24;nan;63521.28;5071955;28;20176;-69
2023/07/19 07:35:39;;;;;;;5.05;3.63;;;;;;;33.13;nan;63534.47;5072000;28;20169;-65
2023/07/19 07:38:04;;;;;;;5.53;3.40;;;;;;;33.21;nan;63713.94;5071964;28;20253;-64
2023/07/19 07:40:30;;;;;;;6.70;3.92;;;;;;;33.34;nan;63473.94;5071626;28;20169;-69
2023/07/19 07:42:55;;;;;;;6.18;3.58;;;;;;;33.50;nan;63629.72;5070154;28;20188;-66
2023/07/19 07:45:21;;;;;;;6.57;4.13;;;;;;;33.60;nan;63651.91;5071005;28;20614;-69
2023/07/19 07:47:47;;;;;;;6.53;3.88;;;;;;;33.50;nan;63680.66;5071242;28;20648;-68
2023/07/19 07:50:13;;;;;;;6.38;3.97;;;;;;;33.50;nan;63603.78;5071636;28;20256;-67
2023/07/19 07:52:38;;;;;;;4.95;3.53;;;;;;;33.78;nan;63648.28;5071622;28;20201;-67
2023/07/19 07:55:05;;;;;;;6.13;3.67;;;;;;;33.46;nan;63591.19;5071583;28;20181;-69
2023/07/19 07:57:33;;;;;;;4.45;3.47;;;;;;;33.61;nan;63639.78;5071715;28;20173;-67
2023/07/19 08:00:02;;;;;;;5.68;3.42;;;;;;;33.37;nan;63606.72;5071557;28;20193;-71
2023/07/19 08:02:28;;;;;;;6.47;3.38;;;;;;;33.65;nan;63657.69;5071617;28;20181;-66
2023/07/19 08:04:53;;;;;;;4.93;3.33;;;;;;;33.84;nan;63629.28;5070911;28;20236;-67
2023/07/19 08:07:18;;;;;;;4.70;3.40;;;;;;;33.95;nan;63675.94;5071402;28;20222;-68
2023/07/19 08:09:44;;;;;;;5.38;3.45;;;;;;;34.15;nan;63648.66;5071631;28;20696;-70
2023/07/19 08:12:09;;;;;;;5.32;3.50;;;;;;;34.11;nan;63718.94;5071592;28;20170;-67
2023/07/19 08:14:36;;;;;;;6.65;3.83;;;;;;;34.44;nan;63718.84;5071146;28;20578;-68
2023/07/19 08:17:01;;;;;;;6.05;3.75;;;;;;;34.17;nan;63704.09;5071365;28;20200;-68
2023/07/19 08:19:27;;;;;;;5.38;3.60;;;;;;;34.18;nan;63697.25;5071447;28;20256;-63
2023/07/19 08:21:52;;;;;;;7.40;3.92;;;;;;;33.85;nan;63653.75;5071694;28;20187;-68
2023/07/19 08:24:18;;;;;;;5.65;3.70;;;;;;;33.53;nan;63619.91;5075341;28;20258;-66
2023/07/19 08:26:43;;;;;;;4.13;3.30;;;;;;;33.60;nan;63598.84;5075475;28;20639;-66
2023/07/19 08:29:10;;;;;;;4.32;3.20;;;;;;;33.68;nan;63751.34;5074065;28;20177;-68
2023/07/19 08:31:36;;;;;;;5.28;3.67;;;;;;;34.07;nan;63722.25;5074989;28;20169;-70
2023/07/19 08:34:01;;;;;;;5.82;3.55;;;;;;;34.03;nan;63701.13;5075056;28;20621;-66
2023/07/19 08:36:27;;;;;;;5.50;3.85;;;;;;;34.03;nan;63696.41;5075487;28;20256;-68
2023/07/19 08:38:52;;;;;;;8.07;4.70;;;;;;;34.09;nan;63692.72;5075041;28;20174;-67
2023/07/19 08:41:21;;;;;;;8.93;4.05;;;;;;;34.25;nan;63692.09;5074795;28;20677;-66
2023/07/19 08:43:47;;;;;;;6.13;4.00;;;;;;;34.43;nan;63787.31;5075188;28;20197;-66
2023/07/19 08:46:15;;;;;;;7.32;3.70;;;;;;;34.63;nan;63817.88;5075273;28;20233;-67
2023/07/19 08:48:47;;;;;;;9.35;4.15;;;;;;;34.68;nan;63902.81;5075214;28;20205;-67
2023/07/19 08:51:14;;;;;;;5.63;3.50;;;;;;;34.51;nan;63777.97;5075546;28;20158;-67
2023/07/19 08:53:40;;;;;;;8.65;3.75;;;;;;;34.79;nan;63780.06;5075454;28;20211;-66
2023/07/19 08:56:06;;;;;;;6.05;3.60;;;;;;;34.77;nan;63846.84;5075118;28;20551;-66
2023/07/19 08:58:36;;;;;;;5.47;3.80;;;;;;;34.81;nan;63838.78;5074884;28;20204;-67
2023/07/19 09:01:02;;;;;;;5.40;3.45;;;;;;;35.39;nan;63942.72;5075023;28;20234;-66
2023/07/19 09:03:28;;;;;;;4.47;3.25;;;;;;;35.01;nan;63880.56;5074888;28;20174;-67
2023/07/19 09:05:53;;;;;;;4.45;3.17;;;;;;;35.27;nan;63941.50;5074946;28;20304;-66
2023/07/19 09:08:19;;;;;;;5.18;3.70;;;;;;;35.03;nan;63872.25;5075029;28;20180;-66
2023/07/19 09:10:46;;;;;;;4.68;3.30;;;;;;;34.84;nan;63839.59;5074891;28;20693;-65
2023/07/19 09:13:18;;;;;;;4.78;3.50;;;;;;;35.17;nan;63913.94;5074554;28;20196;-68
2023/07/19 09:15:47;;;;;;;5.93;3.38;;;;;;;35.12;nan;63884.78;5074630;28;20177;-66
2023/07/19 09:18:13;;;;;;;4.35;3.42;;;;;;;35.50;nan;63970.28;5074745;28;20174;-66
2023/07/19 09:20:39;;;;;;;6.38;3.75;;;;;;;35.57;nan;63965.69;5074628;28;20709;-66
2023/07/19 09:23:06;;;;;;;9.18;6.22;;;;;;;35.30;nan;63945.00;5074719;28;20639;-66
2023/07/19 09:25:32;;;;;;;6.35;4.38;;;;;;;35.20;nan;63967.94;5072931;28;20261;-67
2023/07/19 09:27:57;;;;;;;6.68;4.38;;;;;;;35.08;nan;63845.00;5074804;28;20170;-67
2023/07/19 09:30:23;;;;;;;7.00;4.43;;;;;;;35.35;nan;63926.84;5075149;28;20181;-66
2023/07/19 09:33:00;;;;;;;6.15;3.83;;;;;;;35.61;nan;64135.31;5073789;28;20169;-67
2023/07/19 09:35:28;;;;;;;5.15;3.88;;;;;;;35.41;nan;64000.31;5074482;28;20176;-66
2023/07/19 09:37:54;;;;;;;4.93;3.58;;;;;;;35.52;nan;63972.59;5074169;28;20314;-65
2023/07/19 09:40:20;;;;;;;6.45;3.90;;;;;;;35.38;nan;63898.41;5073971;28;20158;-67
2023/07/19 09:42:49;;;;;;;4.40;3.10;;;;;;;35.44;nan;63961.25;5074662;28;20248;-66
2023/07/19 09:45:17;;;;;;;5.07;3.20;;;;;;;35.40;nan;63972.56;5073998;28;20193;-66
2023/07/19 09:47:44;;;;;;;4.78;3.25;;;;;;;35.49;nan;63953.75;5074198;28;20173;-66
2023/07/19 09:50:09;;;;;;;4.95;3.35;;;;;;;35.52;nan;63978.50;5074155;28;20173;-67
2023/07/19 09:52:40;;;;;;;5.40;3.33;;;;;;;35.62;nan;63992.78;5073881;28;20587;-66
2023/07/19 09:55:06;;;;;;;5.72;3.88;;;;;;;35.76;nan;63998.44;5074260;28;20177;-67
2023/07/19 09:57:35;;;;;;;4.85;3.55;;;;;;;35.96;nan;64063.69;5073955;28;20671;-66
2023/07/19 10:00:03;;;;;;;6.90;4.40;;;;;;;36.11;nan;64112.50;5074007;28;20169;-67
2023/07/19 10:02:29;;;;;;;4.93;3.45;;;;;;;35.76;nan;63992.53;5073878;28;20260;-66
2023/07/19 10:04:54;;;;;;;6.05;3.42;;;;;;;34.99;nan;64040.41;5073811;28;20303;-66
2023/07/19 10:07:24;;;;;;;5.53;3.53;;;;;;;35.07;nan;64073.03;5073556;28;20222;-67
2023/07/19 10:10:01;;;;;;;6.95;3.80;;;;;;;35.13;nan;63909.88;5074266;28;20201;-66
2023/07/19 10:12:26;;;;;;;5.25;3.67;;;;;;;35.02;nan;63881.72;5073994;28;20150;-66
2023/07/19 10:14:58;;;;;;;5.43;3.17;;;;;;;35.17;nan;63887.94;5073394;28;20190;-66
2023/07/19 10:17:24;;;;;;;5.90;3.40;;;;;;;35.17;nan;63935.22;4922479;28;20949;-67
2023/07/19 10:20:02;;;;;;;6.10;3.53;;;;;;;34.99;nan;64000.53;4285302;28;20909;-66
2023/07/19 10:22:52;;;;;;;6.38;3.25;;;;;;;35.70;nan;64012.75;5072572;28;20690;-67
2023/07/19 10:25:27;;;;;;;4.70;2.95;;;;;;;35.90;nan;64003.47;5073818;28;20272;-67
2023/07/19 10:28:01;;;;;;;4.75;3.17;;;;;;;35.91;nan;64086.56;5073449;28;20204;-67
2023/07/19 10:30:44;;;;;;;4.68;3.28;;;;;;;36.26;nan;64103.91;5072764;28;20634;-67
2023/07/19 10:33:15;;;;;;;4.43;2.95;;;;;;;36.35;nan;64135.09;5073315;28;20256;-66
2023/07/19 10:35:41;;;;;;;6.97;3.08;;;;;;;36.41;nan;64123.44;5073389;28;20165;-66
2023/07/19 10:38:17;;;;;;;4.50;3.17;;;;;;;36.58;nan;64150.63;5073000;28;20300;-66
2023/07/19 10:40:46;;;;;;;4.45;3.17;;;;;;;36.46;nan;64155.31;5073245;28;20177;-67
2023/07/19 10:43:13;;;;;;;3.95;2.88;;;;;;;36.33;nan;64089.56;5073511;28;20204;-65
2023/07/19 10:45:38;;;;;;;5.03;3.35;;;;;;;36.44;nan;64137.56;5072222;28;20189;-67
2023/07/19 10:48:04;;;;;;;5.65;3.10;;;;;;;36.28;nan;64121.63;5072869;28;20166;-66
2023/07/19 10:50:30;;;;;;;4.15;2.78;;;;;;;36.54;nan;64148.63;5073084;28;20637;-66
2023/07/19 10:52:55;;;;;;;5.57;2.92;;;;;;;36.72;nan;64370.09;5072807;28;20249;-66
2023/07/19 10:55:21;;;;;;;4.63;3.10;;;;;;;36.58;nan;64182.59;5072773;28;20169;-66
2023/07/19 10:57:47;;;;;;;3.95;2.75;;;;;;;36.72;nan;64174.91;5072476;28;20551;-65
2023/07/19 11:00:13;;;;;;;4.68;3.10;;;;;;;36.52;nan;64178.88;5072661;28;20174;-65
2023/07/19 11:02:40;;;;;;;4.78;3.05;;;;;;;36.57;nan;64179.34;5072639;28;20166;-67
2023/07/19 11:05:09;;;;;;;4.95;3.15;;;;;;;36.72;nan;64193.56;5071013;28;20320;-66
2023/07/19 11:07:35;;;;;;;5.90;3.58;;;;;;;37.02;nan;64267.94;5072338;28;20213;-66
2023/07/19 11:10:03;;;;;;;7.45;4.30;;;;;;;36.82;nan;64245.22;5072749;28;20636;-67
2023/07/19 11:12:31;;;;;;;6.70;4.20;;;;;;;37.03;nan;64266.44;5072671;28;20258;-66
2023/07/19 11:15:00;;;;;;;8.18;4.57;;;;;;;37.06;nan;64267.84;5071268;28;20636;-66
2023/07/19 11:17:27;;;;;;;7.75;4.38;;;;;;;37.18;nan;64287.16;5072542;28;20174;-67
2023/07/19 11:19:53;;;;;;;8.77;3.63;;;;;;;37.22;nan;64288.59;5072402;28;20277;-65
2023/07/19 11:22:23;;;;;;;5.63;3.38;;;;;;;37.24;nan;64296.25;5071933;28;20180;-66
2023/07/19 11:24:50;;;;;;;6.13;3.63;;;;;;;37.19;nan;64282.41;5072457;28;20650;-66
2023/07/19 11:27:17;;;;;;;3.42;2.72;;;;;;;37.30;nan;64259.97;5072100;28;20212;-66
2023/07/19 11:29:47;;;;;;;3.75;2.88;;;;;;;37.00;nan;64218.16;5070841;28;20205;-67
2023/07/19 11:32:19;;;;;;;5.57;3.10;;;;;;;36.67;nan;64209.66;5071913;28;20569;-65
2023/07/19 11:34:51;;;;;;;4.63;3.22;;;;;;;36.37;nan;64110.78;5071330;28;20174;-66
2023/07/19 11:37:27;;;;;;;5.63;3.05;;;;;;;36.71;nan;64171.09;5071958;28;20664;-67
2023/07/19 11:39:57;;;;;;;5.30;3.38;;;;;;;36.85;nan;64440.69;5071789;28;20176;-66
2023/07/19 11:42:58;;;;;;;3.70;2.75;;;;;;;37.00;nan;64268.25;5071590;28;20299;-69
2023/07/19 11:45:26;;;;;;;3.17;2.47;;;;;;;36.90;nan;64238.53;4973781;28;20228;-67
2023/07/19 11:47:56;;;;;;;4.05;2.85;;;;;;;37.02;nan;64270.59;5051217;28;20375;-66